sensor_id;sensor_type;location;lat;lon;timestamp;temperature;humidity
3678;DHT22;1855;50.934;6.958;2024-03-02T05:31:31;7.00;99.90
3678;DHT22;1855;50.934;6.958;2024-03-02T05:33:58;7.00;99.90
3678;DHT22;1855;50.934;6.958;2024-03-02T05:36:25;6.90;99.90
3678;DHT22;1855;50.934;6.958;2024-03-02T05:38:51;6.90;99.90
3678;DHT22;1855;50.934;6.958;2024-03-02T05:41:18;7.00;99.90
3678;DHT22;1855;50.934;6.958;2024-03-02T05:43:47;7.00;99.90
3678;DHT22;1855;50.934;6.958;2024-03-02T05:46:15;6.90;99.90
3678;DHT22;1855;50.934;6.958;2024-03-02T05:48:43;6.90;99.90
3678;DHT22;1855;50.934;6.958;2024-03-02T05:51:09;6.90;99.90
3678;DHT22;1855;50.934;6.958;2024-03-02T05:53:36;6.90;99.90
3678;DHT22;1855;50.934;6.958;2024-03-02T05:56:04;6.90;99.90
3678;DHT22;1855;50.934;6.958;2024-03-02T05:58:31;6.90;99.90
3678;DHT22;1855;50.934;6.958;2024-03-02T06:01:11;6.90;99.90
3678;DHT22;1855;50.934;6.958;2024-03-02T06:03:38;7.00;99.90
3678;DHT22;1855;50.934;6.958;2024-03-02T06:06:06;7.00;99.90
3678;DHT22;1855;50.934;6.958;2024-03-02T06:08:33;7.00;99.90
3678;DHT22;1855;50.934;6.958;2024-03-02T06:11:00;7.00;99.90
3678;DHT22;1855;50.934;6.958;2024-03-02T06:13:27;7.00;99.90
3678;DHT22;1855;50.934;6.958;2024-03-02T06:15:54;7.00;99.90
3678;DHT22;1855;50.934;6.958;2024-03-02T06:18:21;7.00;99.90
3678;DHT22;1855;50.934;6.958;2024-03-02T06:20:47;7.00;99.90
3678;DHT22;1855;50.934;6.958;2024-03-02T06:23:16;7.00;99.90
3678;DHT22;1855;50.934;6.958;2024-03-02T06:25:42;7.00;99.90
3678;DHT22;1855;50.934;6.958;2024-03-02T06:28:09;7.00;99.90
3678;DHT22;1855;50.934;6.958;2024-03-02T06:30:36;7.00;99.90
3678;DHT22;1855;50.934;6.958;2024-03-02T06:33:03;7.00;99.90
3678;DHT22;1855;50.934;6.958;2024-03-02T06:35:31;7.00;99.90
3678;DHT22;1855;50.934;6.958;2024-03-02T06:37:58;7.00;99.90
3678;DHT22;1855;50.934;6.958;2024-03-02T06:40:25;7.00;99.90
3678;DHT22;1855;50.934;6.958;2024-03-02T06:42:52;7.00;99.90
3678;DHT22;1855;50.934;6.958;2024-03-02T06:45:19;7.00;99.90
3678;DHT22;1855;50.934;6.958;2024-03-02T06:47:46;7.00;99.90
3678;DHT22;1855;50.934;6.958;2024-03-02T06:50:12;7.00;99.90
3678;DHT22;1855;50.934;6.958;2024-03-02T06:52:39;7.00;99.90
3678;DHT22;1855;50.934;6.958;2024-03-02T06:55:06;7.00;99.90
3678;DHT22;1855;50.934;6.958;2024-03-02T06:57:35;7.00;99.90
3678;DHT22;1855;50.934;6.958;2024-03-02T07:00:01;7.00;99.90
3678;DHT22;1855;50.934;6.958;2024-03-02T07:02:30;7.10;99.90
3678;DHT22;1855;50.934;6.958;2024-03-02T07:04:57;7.10;99.90
3678;DHT22;1855;50.934;6.958;2024-03-02T07:07:24;7.10;99.90
3678;DHT22;1855;50.934;6.958;2024-03-02T07:09:51;7.20;99.90
3678;DHT22;1855;50.934;6.958;2024-03-02T07:12:18;7.20;99.90
3678;DHT22;1855;50.934;6.958;2024-03-02T07:14:46;7.20;99.90
3678;DHT22;1855;50.934;6.958;2024-03-02T07:17:30;7.20;99.90
3678;DHT22;1855;50.934;6.958;2024-03-02T07:19:57;7.30;99.90
3678;DHT22;1855;50.934;6.958;2024-03-02T07:22:24;7.30;99.90
3678;DHT22;1855;50.934;6.958;2024-03-02T07:24:51;7.40;99.90
3678;DHT22;1855;50.934;6.958;2024-03-02T07:27:17;7.50;99.90
3678;DHT22;1855;50.934;6.958;2024-03-02T07:29:46;7.50;99.90
3678;DHT22;1855;50.934;6.958;2024-03-02T07:32:12;7.60;99.90
3678;DHT22;1855;50.934;6.958;2024-03-02T07:34:39;7.70;99.90
3678;DHT22;1855;50.934;6.958;2024-03-02T07:37:06;7.70;99.90
3678;DHT22;1855;50.934;6.958;2024-03-02T07:39:33;7.80;99.90
3678;DHT22;1855;50.934;6.958;2024-03-02T07:41:59;7.90;99.90
3678;DHT22;1855;50.934;6.958;2024-03-02T07:44:26;8.00;99.90
3678;DHT22;1855;50.934;6.958;2024-03-02T07:46:55;8.00;99.90
3678;DHT22;1855;50.934;6.958;2024-03-02T07:49:21;8.10;99.90
3678;DHT22;1855;50.934;6.958;2024-03-02T07:51:48;8.10;99.90
3678;DHT22;1855;50.934;6.958;2024-03-02T07:54:15;8.10;99.90
3678;DHT22;1855;50.934;6.958;2024-03-02T07:56:42;8.00;99.90
3678;DHT22;1855;50.934;6.958;2024-03-02T07:59:08;8.00;99.90
3678;DHT22;1855;50.934;6.958;2024-03-02T08:01:35;8.00;99.90
3678;DHT22;1855;50.934;6.958;2024-03-02T08:04:03;8.10;99.90
3678;DHT22;1855;50.934;6.958;2024-03-02T08:06:31;8.20;99.90
3678;DHT22;1855;50.934;6.958;2024-03-02T08:08:58;8.40;99.90
3678;DHT22;1855;50.934;6.958;2024-03-02T08:11:26;8.60;99.90
3678;DHT22;1855;50.934;6.958;2024-03-02T08:13:54;8.80;99.90
3678;DHT22;1855;50.934;6.958;2024-03-02T08:16:21;8.90;99.90
3678;DHT22;1855;50.934;6.958;2024-03-02T08:18:49;9.00;99.90
3678;DHT22;1855;50.934;6.958;2024-03-02T08:21:17;9.10;99.90
3678;DHT22;1855;50.934;6.958;2024-03-02T08:23:44;9.30;99.90
3678;DHT22;1855;50.934;6.958;2024-03-02T08:26:11;9.50;99.90
3678;DHT22;1855;50.934;6.958;2024-03-02T08:28:39;9.80;99.90
3678;DHT22;1855;50.934;6.958;2024-03-02T08:31:06;10.00;99.90
3678;DHT22;1855;50.934;6.958;2024-03-02T08:33:33;10.10;99.90
3678;DHT22;1855;50.934;6.958;2024-03-02T08:36:00;10.30;99.90
3678;DHT22;1855;50.934;6.958;2024-03-02T08:38:28;10.50;99.90
3678;DHT22;1855;50.934;6.958;2024-03-02T08:40:56;10.70;99.90
3678;DHT22;1855;50.934;6.958;2024-03-02T08:43:23;10.90;99.90
3678;DHT22;1855;50.934;6.958;2024-03-02T08:45:50;11.10;99.40
3678;DHT22;1855;50.934;6.958;2024-03-02T08:48:17;11.20;99.10
3678;DHT22;1855;50.934;6.958;2024-03-02T08:50:44;11.30;96.40
3678;DHT22;1855;50.934;6.958;2024-03-02T08:53:10;11.20;98.10
3678;DHT22;1855;50.934;6.958;2024-03-02T08:55:38;11.10;98.20
3678;DHT22;1855;50.934;6.958;2024-03-02T08:58:05;11.10;99.40
3678;DHT22;1855;50.934;6.958;2024-03-02T09:00:32;11.10;99.00
3678;DHT22;1855;50.934;6.958;2024-03-02T09:02:59;11.30;98.60
3678;DHT22;1855;50.934;6.958;2024-03-02T09:05:26;11.50;97.20
3678;DHT22;1855;50.934;6.958;2024-03-02T09:07:52;11.70;95.50
3678;DHT22;1855;50.934;6.958;2024-03-02T09:10:19;11.70;94.80
3678;DHT22;1855;50.934;6.958;2024-03-02T09:12:47;11.70;94.90
3678;DHT22;1855;50.934;6.958;2024-03-02T09:15:14;11.70;94.50
3678;DHT22;1855;50.934;6.958;2024-03-02T09:17:41;11.60;93.40
3678;DHT22;1855;50.934;6.958;2024-03-02T09:20:09;11.50;94.80
3678;DHT22;1855;50.934;6.958;2024-03-02T09:22:36;11.60;95.10
3678;DHT22;1855;50.934;6.958;2024-03-02T09:25:03;11.80;94.90
3678;DHT22;1855;50.934;6.958;2024-03-02T09:27:32;11.80;93.70
3678;DHT22;1855;50.934;6.958;2024-03-02T09:30:00;11.90;92.90
3678;DHT22;1855;50.934;6.958;2024-03-02T09:32:27;11.90;92.70
3678;DHT22;1855;50.934;6.958;2024-03-02T09:34:54;11.90;91.50
3678;DHT22;1855;50.934;6.958;2024-03-02T09:37:21;12.00;91.30
3678;DHT22;1855;50.934;6.958;2024-03-02T09:39:48;12.10;90.80
3678;DHT22;1855;50.934;6.958;2024-03-02T09:42:14;12.20;87.70
3678;DHT22;1855;50.934;6.958;2024-03-02T09:44:42;12.20;87.90
3678;DHT22;1855;50.934;6.958;2024-03-02T09:47:10;12.30;87.40
3678;DHT22;1855;50.934;6.958;2024-03-02T09:49:37;12.30;85.80
3678;DHT22;1855;50.934;6.958;2024-03-02T09:52:05;12.30;84.10
3678;DHT22;1855;50.934;6.958;2024-03-02T09:54:33;12.20;85.20
3678;DHT22;1855;50.934;6.958;2024-03-02T09:56:59;12.10;86.90
3678;DHT22;1855;50.934;6.958;2024-03-02T09:59:27;12.00;87.70
3678;DHT22;1855;50.934;6.958;2024-03-02T10:01:58;12.10;88.20
3678;DHT22;1855;50.934;6.958;2024-03-02T10:04:28;12.10;87.30
3678;DHT22;1855;50.934;6.958;2024-03-02T10:07:11;12.20;87.10
3678;DHT22;1855;50.934;6.958;2024-03-02T10:09:38;12.30;84.80
3678;DHT22;1855;50.934;6.958;2024-03-02T10:12:06;12.40;83.80
3678;DHT22;1855;50.934;6.958;2024-03-02T10:14:33;12.40;83.60
3678;DHT22;1855;50.934;6.958;2024-03-02T10:17:05;12.40;82.10
3678;DHT22;1855;50.934;6.958;2024-03-02T10:19:33;12.50;80.50
3678;DHT22;1855;50.934;6.958;2024-03-02T10:22:03;12.60;79.70
3678;DHT22;1855;50.934;6.958;2024-03-02T10:24:35;12.70;77.90
3678;DHT22;1855;50.934;6.958;2024-03-02T10:27:07;13.00;77.30
3678;DHT22;1855;50.934;6.958;2024-03-02T10:29:39;13.20;73.30
3678;DHT22;1855;50.934;6.958;2024-03-02T10:32:08;13.40;70.20
3678;DHT22;1855;50.934;6.958;2024-03-02T10:34:40;13.40;70.10
3678;DHT22;1855;50.934;6.958;2024-03-02T10:37:07;13.40;70.40
3678;DHT22;1855;50.934;6.958;2024-03-02T10:39:34;13.50;69.30
3678;DHT22;1855;50.934;6.958;2024-03-02T10:42:02;13.50;69.60
3678;DHT22;1855;50.934;6.958;2024-03-02T10:44:30;13.60;68.40
3678;DHT22;1855;50.934;6.958;2024-03-02T10:46:59;13.70;67.20
3678;DHT22;1855;50.934;6.958;2024-03-02T10:49:27;13.70;67.30
3678;DHT22;1855;50.934;6.958;2024-03-02T10:51:56;13.70;67.60
3678;DHT22;1855;50.934;6.958;2024-03-02T10:54:23;13.70;66.40
3678;DHT22;1855;50.934;6.958;2024-03-02T10:56:56;13.60;66.90
3678;DHT22;1855;50.934;6.958;2024-03-02T10:59:27;13.70;67.20
3678;DHT22;1855;50.934;6.958;2024-03-02T11:01:56;13.70;67.10
3678;DHT22;1855;50.934;6.958;2024-03-02T11:04:25;13.70;67.00
3678;DHT22;1855;50.934;6.958;2024-03-02T11:06:54;13.50;67.30
3678;DHT22;1855;50.934;6.958;2024-03-02T11:09:27;13.60;67.20
3678;DHT22;1855;50.934;6.958;2024-03-02T11:12:00;13.60;67.10
3678;DHT22;1855;50.934;6.958;2024-03-02T11:14:30;13.50;66.20
3678;DHT22;1855;50.934;6.958;2024-03-02T11:16:58;13.60;67.00
3678;DHT22;1855;50.934;6.958;2024-03-02T11:19:25;13.60;66.20
3678;DHT22;1855;50.934;6.958;2024-03-02T11:21:53;13.70;66.30
3678;DHT22;1855;50.934;6.958;2024-03-02T11:24:32;13.80;66.20
3678;DHT22;1855;50.934;6.958;2024-03-02T11:27:03;13.90;66.90
3678;DHT22;1855;50.934;6.958;2024-03-02T11:29:43;14.30;64.50
3678;DHT22;1855;50.934;6.958;2024-03-02T11:32:14;14.30;63.90
3678;DHT22;1855;50.934;6.958;2024-03-02T11:34:42;14.30;63.90
3678;DHT22;1855;50.934;6.958;2024-03-02T11:37:12;14.20;64.60
3678;DHT22;1855;50.934;6.958;2024-03-02T11:39:40;14.20;64.60
3678;DHT22;1855;50.934;6.958;2024-03-02T11:42:07;14.40;63.20
3678;DHT22;1855;50.934;6.958;2024-03-02T11:44:35;14.50;62.80
3678;DHT22;1855;50.934;6.958;2024-03-02T11:47:05;14.50;62.70
3678;DHT22;1855;50.934;6.958;2024-03-02T11:49:39;14.50;63.60
3678;DHT22;1855;50.934;6.958;2024-03-02T11:52:07;14.80;62.80
3678;DHT22;1855;50.934;6.958;2024-03-02T11:54:35;14.80;62.00
3678;DHT22;1855;50.934;6.958;2024-03-02T11:57:06;14.90;61.50
3678;DHT22;1855;50.934;6.958;2024-03-02T11:59:34;14.80;61.20
3678;DHT22;1855;50.934;6.958;2024-03-02T12:02:02;14.80;61.90
3678;DHT22;1855;50.934;6.958;2024-03-02T12:04:29;14.70;61.90
3678;DHT22;1855;50.934;6.958;2024-03-02T12:06:59;14.50;62.90
3678;DHT22;1855;50.934;6.958;2024-03-02T12:09:26;14.50;63.20
3678;DHT22;1855;50.934;6.958;2024-03-02T12:12:08;14.30;63.70
3678;DHT22;1855;50.934;6.958;2024-03-02T12:14:36;13.90;65.10
3678;DHT22;1855;50.934;6.958;2024-03-02T12:17:03;13.90;66.00
3678;DHT22;1855;50.934;6.958;2024-03-02T12:19:31;14.00;66.50
3678;DHT22;1855;50.934;6.958;2024-03-02T12:21:59;14.10;65.10
3678;DHT22;1855;50.934;6.958;2024-03-02T12:24:27;14.10;64.70
3678;DHT22;1855;50.934;6.958;2024-03-02T12:26:54;14.10;65.60
3678;DHT22;1855;50.934;6.958;2024-03-02T12:29:23;14.20;65.50
3678;DHT22;1855;50.934;6.958;2024-03-02T12:31:52;14.30;64.50
3678;DHT22;1855;50.934;6.958;2024-03-02T12:34:19;14.50;63.70
3678;DHT22;1855;50.934;6.958;2024-03-02T12:36:46;14.60;63.00
3678;DHT22;1855;50.934;6.958;2024-03-02T12:39:15;14.80;62.20
3678;DHT22;1855;50.934;6.958;2024-03-02T12:41:42;15.00;61.70
3678;DHT22;1855;50.934;6.958;2024-03-02T12:44:09;15.10;61.70
3678;DHT22;1855;50.934;6.958;2024-03-02T12:46:37;15.10;61.40
3678;DHT22;1855;50.934;6.958;2024-03-02T12:49:08;15.10;61.00
3678;DHT22;1855;50.934;6.958;2024-03-02T12:51:37;15.00;61.60
3678;DHT22;1855;50.934;6.958;2024-03-02T12:54:06;15.20;61.30
3678;DHT22;1855;50.934;6.958;2024-03-02T12:56:33;15.40;61.30
3678;DHT22;1855;50.934;6.958;2024-03-02T12:59:01;15.20;59.30
3678;DHT22;1855;50.934;6.958;2024-03-02T13:01:28;15.30;60.40
3678;DHT22;1855;50.934;6.958;2024-03-02T13:03:56;15.30;60.30
3678;DHT22;1855;50.934;6.958;2024-03-02T13:06:24;15.50;60.40
3678;DHT22;1855;50.934;6.958;2024-03-02T13:08:53;15.80;60.30
3678;DHT22;1855;50.934;6.958;2024-03-02T13:11:21;15.90;58.70
3678;DHT22;1855;50.934;6.958;2024-03-02T13:13:48;16.00;57.70
3678;DHT22;1855;50.934;6.958;2024-03-02T13:16:15;16.00;58.40
3678;DHT22;1855;50.934;6.958;2024-03-02T13:18:44;16.00;58.50
3678;DHT22;1855;50.934;6.958;2024-03-02T13:21:12;16.00;58.50
3678;DHT22;1855;50.934;6.958;2024-03-02T13:23:39;16.00;58.30
3678;DHT22;1855;50.934;6.958;2024-03-02T13:26:06;15.70;58.70
3678;DHT22;1855;50.934;6.958;2024-03-02T13:28:36;15.50;59.60
3678;DHT22;1855;50.934;6.958;2024-03-02T13:31:03;15.20;60.00
3678;DHT22;1855;50.934;6.958;2024-03-02T13:33:31;15.00;60.80
3678;DHT22;1855;50.934;6.958;2024-03-02T13:35:58;14.90;61.30
3678;DHT22;1855;50.934;6.958;2024-03-02T13:38:26;14.90;61.40
3678;DHT22;1855;50.934;6.958;2024-03-02T13:40:53;15.10;61.10
3678;DHT22;1855;50.934;6.958;2024-03-02T13:43:20;15.20;61.20
3678;DHT22;1855;50.934;6.958;2024-03-02T13:45:46;15.20;61.30
3678;DHT22;1855;50.934;6.958;2024-03-02T13:48:13;15.40;59.30
3678;DHT22;1855;50.934;6.958;2024-03-02T13:50:40;15.40;58.30
3678;DHT22;1855;50.934;6.958;2024-03-02T13:53:07;15.50;58.30
3678;DHT22;1855;50.934;6.958;2024-03-02T13:55:36;15.60;61.00
3678;DHT22;1855;50.934;6.958;2024-03-02T13:58:03;15.60;58.10
3678;DHT22;1855;50.934;6.958;2024-03-02T14:00:30;15.60;57.80
3678;DHT22;1855;50.934;6.958;2024-03-02T14:02:57;15.60;58.30
3678;DHT22;1855;50.934;6.958;2024-03-02T14:05:24;15.70;57.40
3678;DHT22;1855;50.934;6.958;2024-03-02T14:07:51;15.60;57.40
3678;DHT22;1855;50.934;6.958;2024-03-02T14:10:17;15.60;57.30
3678;DHT22;1855;50.934;6.958;2024-03-02T14:12:49;15.50;57.50
3678;DHT22;1855;50.934;6.958;2024-03-02T14:15:15;15.60;58.30
3678;DHT22;1855;50.934;6.958;2024-03-02T14:17:42;15.40;57.80
3678;DHT22;1855;50.934;6.958;2024-03-02T14:20:10;15.30;58.60
3678;DHT22;1855;50.934;6.958;2024-03-02T14:22:37;15.10;58.30
3678;DHT22;1855;50.934;6.958;2024-03-02T14:25:05;15.00;59.10
3678;DHT22;1855;50.934;6.958;2024-03-02T14:27:32;15.00;60.70
3678;DHT22;1855;50.934;6.958;2024-03-02T14:30:00;15.00;60.80
3678;DHT22;1855;50.934;6.958;2024-03-02T14:32:27;15.00;60.70
3678;DHT22;1855;50.934;6.958;2024-03-02T14:34:53;15.10;60.00
3678;DHT22;1855;50.934;6.958;2024-03-02T14:37:21;15.00;59.90
3678;DHT22;1855;50.934;6.958;2024-03-02T14:39:48;14.80;60.30
3678;DHT22;1855;50.934;6.958;2024-03-02T14:42:15;14.50;60.90
3678;DHT22;1855;50.934;6.958;2024-03-02T14:44:42;14.40;61.50
3678;DHT22;1855;50.934;6.958;2024-03-02T14:47:10;14.30;62.00
3678;DHT22;1855;50.934;6.958;2024-03-02T14:49:37;14.20;62.30
3678;DHT22;1855;50.934;6.958;2024-03-02T14:52:06;14.20;62.70
3678;DHT22;1855;50.934;6.958;2024-03-02T14:54:33;14.10;63.00
3678;DHT22;1855;50.934;6.958;2024-03-02T14:57:00;14.10;62.80
3678;DHT22;1855;50.934;6.958;2024-03-02T14:59:28;14.10;62.90
3678;DHT22;1855;50.934;6.958;2024-03-02T15:01:55;14.20;62.50
3678;DHT22;1855;50.934;6.958;2024-03-02T15:04:23;14.10;62.00
3678;DHT22;1855;50.934;6.958;2024-03-02T15:06:50;14.00;62.40
3678;DHT22;1855;50.934;6.958;2024-03-02T15:09:17;13.90;62.70
3678;DHT22;1855;50.934;6.958;2024-03-02T15:11:45;13.90;63.30
3678;DHT22;1855;50.934;6.958;2024-03-02T15:14:12;13.80;63.20
3678;DHT22;1855;50.934;6.958;2024-03-02T15:16:39;13.90;62.70
3678;DHT22;1855;50.934;6.958;2024-03-02T15:19:07;14.10;62.00
3678;DHT22;1855;50.934;6.958;2024-03-02T15:21:35;14.10;62.10
3678;DHT22;1855;50.934;6.958;2024-03-02T15:24:02;14.20;61.70
3678;DHT22;1855;50.934;6.958;2024-03-02T15:26:29;14.20;61.50
3678;DHT22;1855;50.934;6.958;2024-03-02T15:28:56;14.20;61.20
3678;DHT22;1855;50.934;6.958;2024-03-02T15:31:24;14.10;61.40
3678;DHT22;1855;50.934;6.958;2024-03-02T15:33:51;14.00;61.50
3678;DHT22;1855;50.934;6.958;2024-03-02T15:36:18;14.00;61.60
3678;DHT22;1855;50.934;6.958;2024-03-02T15:38:46;14.00;61.00
3678;DHT22;1855;50.934;6.958;2024-03-02T15:41:13;13.90;61.20
3678;DHT22;1855;50.934;6.958;2024-03-02T15:43:40;13.90;61.90
3678;DHT22;1855;50.934;6.958;2024-03-02T15:46:08;13.80;61.60
3678;DHT22;1855;50.934;6.958;2024-03-02T15:48:35;13.80;61.80
3678;DHT22;1855;50.934;6.958;2024-03-02T15:51:02;13.80;61.90
3678;DHT22;1855;50.934;6.958;2024-03-02T15:53:29;13.80;61.80
3678;DHT22;1855;50.934;6.958;2024-03-02T15:55:57;13.80;62.10
3678;DHT22;1855;50.934;6.958;2024-03-02T15:58:24;13.80;61.80
3678;DHT22;1855;50.934;6.958;2024-03-02T16:00:51;13.80;61.40
3678;DHT22;1855;50.934;6.958;2024-03-02T16:03:18;13.90;61.20
3678;DHT22;1855;50.934;6.958;2024-03-02T16:05:45;14.00;61.00
3678;DHT22;1855;50.934;6.958;2024-03-02T16:08:11;14.00;60.60
3678;DHT22;1855;50.934;6.958;2024-03-02T16:10:38;14.00;60.60
3678;DHT22;1855;50.934;6.958;2024-03-02T16:13:06;13.90;61.10
3678;DHT22;1855;50.934;6.958;2024-03-02T16:15:33;13.80;61.20
3678;DHT22;1855;50.934;6.958;2024-03-02T16:18:00;13.80;61.50
3678;DHT22;1855;50.934;6.958;2024-03-02T16:20:27;13.90;61.60
3678;DHT22;1855;50.934;6.958;2024-03-02T16:22:54;13.90;61.40
3678;DHT22;1855;50.934;6.958;2024-03-02T16:25:20;13.90;61.50
3678;DHT22;1855;50.934;6.958;2024-03-02T16:27:50;13.90;61.70
3678;DHT22;1855;50.934;6.958;2024-03-02T16:30:18;13.80;61.80
3678;DHT22;1855;50.934;6.958;2024-03-02T16:32:46;13.80;61.70
3678;DHT22;1855;50.934;6.958;2024-03-02T16:35:13;13.70;62.00
3678;DHT22;1855;50.934;6.958;2024-03-02T16:37:40;13.70;62.30
3678;DHT22;1855;50.934;6.958;2024-03-02T16:40:08;13.70;62.50
3678;DHT22;1855;50.934;6.958;2024-03-02T16:42:35;13.60;62.80
3678;DHT22;1855;50.934;6.958;2024-03-02T16:45:02;13.60;62.80
3678;DHT22;1855;50.934;6.958;2024-03-02T16:47:30;13.50;62.50
3678;DHT22;1855;50.934;6.958;2024-03-02T16:49:56;13.50;63.00
3678;DHT22;1855;50.934;6.958;2024-03-02T16:52:23;13.50;63.00
3678;DHT22;1855;50.934;6.958;2024-03-02T16:54:50;13.40;62.50
3678;DHT22;1855;50.934;6.958;2024-03-02T16:57:17;13.40;62.70
3678;DHT22;1855;50.934;6.958;2024-03-02T16:59:44;13.40;62.70
3678;DHT22;1855;50.934;6.958;2024-03-02T17:02:11;13.40;62.90
3678;DHT22;1855;50.934;6.958;2024-03-02T17:04:39;13.40;62.70
3678;DHT22;1855;50.934;6.958;2024-03-02T17:07:06;13.40;62.90
3678;DHT22;1855;50.934;6.958;2024-03-02T17:09:33;13.40;63.20
3678;DHT22;1855;50.934;6.958;2024-03-02T17:12:00;13.40;63.10
3678;DHT22;1855;50.934;6.958;2024-03-02T17:14:27;13.30;62.90
3678;DHT22;1855;50.934;6.958;2024-03-02T17:16:53;13.30;63.40
3678;DHT22;1855;50.934;6.958;2024-03-02T17:19:20;13.30;63.70
3678;DHT22;1855;50.934;6.958;2024-03-02T17:21:48;13.20;63.80
3678;DHT22;1855;50.934;6.958;2024-03-02T17:24:15;13.20;64.20
3678;DHT22;1855;50.934;6.958;2024-03-02T17:26:41;13.20;65.00
3678;DHT22;1855;50.934;6.958;2024-03-02T17:29:08;13.20;64.50
3678;DHT22;1855;50.934;6.958;2024-03-02T17:31:35;13.20;64.30
3678;DHT22;1855;50.934;6.958;2024-03-02T17:34:02;13.20;64.60
3678;DHT22;1855;50.934;6.958;2024-03-02T17:36:28;13.10;64.70
3678;DHT22;1855;50.934;6.958;2024-03-02T17:38:56;13.10;64.60
3678;DHT22;1855;50.934;6.958;2024-03-02T17:41:23;13.10;64.80
3678;DHT22;1855;50.934;6.958;2024-03-02T17:43:50;13.10;65.00
3678;DHT22;1855;50.934;6.958;2024-03-02T17:46:16;13.10;64.70
3678;DHT22;1855;50.934;6.958;2024-03-02T17:48:43;13.10;65.00
3678;DHT22;1855;50.934;6.958;2024-03-02T17:51:10;13.10;64.40
3678;DHT22;1855;50.934;6.958;2024-03-02T17:53:37;13.10;64.60
3678;DHT22;1855;50.934;6.958;2024-03-02T17:56:06;13.10;64.90
3678;DHT22;1855;50.934;6.958;2024-03-02T17:58:35;13.00;64.80
3678;DHT22;1855;50.934;6.958;2024-03-02T18:01:02;13.00;65.00
3678;DHT22;1855;50.934;6.958;2024-03-02T18:03:29;13.00;64.60
3678;DHT22;1855;50.934;6.958;2024-03-02T18:05:56;13.00;64.70
3678;DHT22;1855;50.934;6.958;2024-03-02T18:08:23;13.00;64.90
3678;DHT22;1855;50.934;6.958;2024-03-02T18:10:49;13.00;65.40
3678;DHT22;1855;50.934;6.958;2024-03-02T18:13:17;13.00;66.40
3678;DHT22;1855;50.934;6.958;2024-03-02T18:15:44;13.00;66.60
3678;DHT22;1855;50.934;6.958;2024-03-02T18:18:11;13.00;66.30
3678;DHT22;1855;50.934;6.958;2024-03-02T18:20:38;13.00;65.80
3678;DHT22;1855;50.934;6.958;2024-03-02T18:23:05;13.00;65.30
3678;DHT22;1855;50.934;6.958;2024-03-02T18:25:31;13.00;65.60
3678;DHT22;1855;50.934;6.958;2024-03-02T18:27:58;13.00;65.70
3678;DHT22;1855;50.934;6.958;2024-03-02T18:30:26;13.00;65.60
3678;DHT22;1855;50.934;6.958;2024-03-02T18:32:53;13.00;65.80
3678;DHT22;1855;50.934;6.958;2024-03-02T18:35:20;13.00;66.10
3678;DHT22;1855;50.934;6.958;2024-03-02T18:37:47;13.00;66.20
3678;DHT22;1855;50.934;6.958;2024-03-02T18:40:13;13.00;66.00
3678;DHT22;1855;50.934;6.958;2024-03-02T18:42:40;13.00;66.70
3678;DHT22;1855;50.934;6.958;2024-03-02T18:45:07;13.00;66.90
3678;DHT22;1855;50.934;6.958;2024-03-02T18:47:36;12.90;67.30
3678;DHT22;1855;50.934;6.958;2024-03-02T18:50:04;12.90;68.50
3678;DHT22;1855;50.934;6.958;2024-03-02T18:52:34;12.90;68.50
3678;DHT22;1855;50.934;6.958;2024-03-02T18:55:01;12.90;69.00
3678;DHT22;1855;50.934;6.958;2024-03-02T18:57:28;12.90;68.90
3678;DHT22;1855;50.934;6.958;2024-03-02T18:59:55;12.90;69.90
3678;DHT22;1855;50.934;6.958;2024-03-02T19:02:22;12.90;70.10
3678;DHT22;1855;50.934;6.958;2024-03-02T19:04:51;12.90;70.20
3678;DHT22;1855;50.934;6.958;2024-03-02T19:07:17;12.90;70.60
3678;DHT22;1855;50.934;6.958;2024-03-02T19:09:44;12.80;71.50
3678;DHT22;1855;50.934;6.958;2024-03-02T19:12:11;12.70;72.60
3678;DHT22;1855;50.934;6.958;2024-03-02T19:14:37;12.70;73.20
3678;DHT22;1855;50.934;6.958;2024-03-02T19:17:04;12.60;73.60
3678;DHT22;1855;50.934;6.958;2024-03-02T19:19:31;12.60;74.80
3678;DHT22;1855;50.934;6.958;2024-03-02T19:21:59;12.60;76.10
3678;DHT22;1855;50.934;6.958;2024-03-02T19:24:26;12.60;75.60
3678;DHT22;1855;50.934;6.958;2024-03-02T19:26:53;12.60;76.50
3678;DHT22;1855;50.934;6.958;2024-03-02T19:29:20;12.60;76.50
3678;DHT22;1855;50.934;6.958;2024-03-02T19:31:48;12.60;77.40
3678;DHT22;1855;50.934;6.958;2024-03-02T19:34:15;12.60;76.80
3678;DHT22;1855;50.934;6.958;2024-03-02T19:36:43;12.60;77.60
3678;DHT22;1855;50.934;6.958;2024-03-02T19:39:11;12.60;77.30
3678;DHT22;1855;50.934;6.958;2024-03-02T19:41:37;12.60;77.60
3678;DHT22;1855;50.934;6.958;2024-03-02T19:44:04;12.60;77.60
3678;DHT22;1855;50.934;6.958;2024-03-02T19:46:32;12.60;77.60
3678;DHT22;1855;50.934;6.958;2024-03-02T19:48:58;12.60;78.10
3678;DHT22;1855;50.934;6.958;2024-03-02T19:51:25;12.50;78.60
3678;DHT22;1855;50.934;6.958;2024-03-02T19:53:52;12.50;78.90
3678;DHT22;1855;50.934;6.958;2024-03-02T19:56:20;12.50;79.20
3678;DHT22;1855;50.934;6.958;2024-03-02T19:58:47;12.40;79.90
3678;DHT22;1855;50.934;6.958;2024-03-02T20:01:17;12.40;80.70
3678;DHT22;1855;50.934;6.958;2024-03-02T20:03:44;12.40;80.60
3678;DHT22;1855;50.934;6.958;2024-03-02T20:06:11;12.40;81.10
3678;DHT22;1855;50.934;6.958;2024-03-02T20:08:38;12.40;81.10
3678;DHT22;1855;50.934;6.958;2024-03-02T20:11:04;12.40;82.10
3678;DHT22;1855;50.934;6.958;2024-03-02T20:13:33;12.30;82.60
3678;DHT22;1855;50.934;6.958;2024-03-02T20:16:00;12.30;84.40
3678;DHT22;1855;50.934;6.958;2024-03-02T20:18:26;12.30;83.70
3678;DHT22;1855;50.934;6.958;2024-03-02T20:20:53;12.30;85.30
3678;DHT22;1855;50.934;6.958;2024-03-02T20:23:20;12.30;86.20
3678;DHT22;1855;50.934;6.958;2024-03-02T20:25:47;12.20;86.70
3678;DHT22;1855;50.934;6.958;2024-03-02T20:28:13;12.20;87.00
3678;DHT22;1855;50.934;6.958;2024-03-02T20:30:43;12.20;87.70
3678;DHT22;1855;50.934;6.958;2024-03-02T20:33:10;12.10;89.40
3678;DHT22;1855;50.934;6.958;2024-03-02T20:35:37;12.10;88.80
3678;DHT22;1855;50.934;6.958;2024-03-02T20:38:04;12.10;90.00
3678;DHT22;1855;50.934;6.958;2024-03-02T20:40:31;12.10;90.40
3678;DHT22;1855;50.934;6.958;2024-03-02T20:42:59;12.10;90.10
3678;DHT22;1855;50.934;6.958;2024-03-02T20:45:26;12.10;90.50
3678;DHT22;1855;50.934;6.958;2024-03-02T20:47:54;12.10;90.30
3678;DHT22;1855;50.934;6.958;2024-03-02T20:50:21;12.10;90.40
3678;DHT22;1855;50.934;6.958;2024-03-02T20:52:48;12.10;90.70
3678;DHT22;1855;50.934;6.958;2024-03-02T20:55:14;12.10;90.80
3678;DHT22;1855;50.934;6.958;2024-03-02T20:57:41;12.10;91.70
3678;DHT22;1855;50.934;6.958;2024-03-02T21:00:09;12.10;91.30
3678;DHT22;1855;50.934;6.958;2024-03-02T21:02:35;12.10;91.50
3678;DHT22;1855;50.934;6.958;2024-03-02T21:05:05;12.10;91.90
3678;DHT22;1855;50.934;6.958;2024-03-02T21:07:32;12.10;92.20
3678;DHT22;1855;50.934;6.958;2024-03-02T21:10:00;12.10;92.00
3678;DHT22;1855;50.934;6.958;2024-03-02T21:12:27;12.10;92.30
3678;DHT22;1855;50.934;6.958;2024-03-02T21:14:54;12.10;92.90
3678;DHT22;1855;50.934;6.958;2024-03-02T21:17:21;12.00;92.60
3678;DHT22;1855;50.934;6.958;2024-03-02T21:19:47;12.00;93.20
3678;DHT22;1855;50.934;6.958;2024-03-02T21:22:16;12.00;94.00
3678;DHT22;1855;50.934;6.958;2024-03-02T21:24:43;12.00;94.00
3678;DHT22;1855;50.934;6.958;2024-03-02T21:27:11;11.90;94.30
3678;DHT22;1855;50.934;6.958;2024-03-02T21:29:38;11.90;94.70
3678;DHT22;1855;50.934;6.958;2024-03-02T21:32:05;11.90;95.10
3678;DHT22;1855;50.934;6.958;2024-03-02T21:34:32;11.90;95.10
3678;DHT22;1855;50.934;6.958;2024-03-02T21:36:59;11.90;95.40